Detall de PIREP

Printer-friendly versionPDF version

[2012/11/19 09:16:00]
Flight IATA:CT3107
Pilot Number:011
Company ICAO:CAT
Aircraft Type:F28/A
PAX:85
Departing Airport: LEVC
Destination Airport: LIEA
Alternate Airport:LIEO
Online: VATSIM
Route:ORVUS UM871 PTC UN851 MHN UM603 ELSAG
Flight Level:F300
No Slew and time accel
No pause
Crash detect
Detect pilot in Cockpit between each 30 and 45 minutes
09:16 Zero fuel Weight: 59657 Lbs, Fuel Weight: 12566 Lbs
09:16 VATSIM:LEVC 190830Z VRB02KT 9999 FEW030 14/11 Q1016 NOSIG
09:16 VATSIM:LIEA 190820Z 02002KT CAVOK 14/13 Q1011
09:23 Parking Brakes off
09:32 Take-off
09:32 Take off Weight: 71636 Lbs
09:32 Wind: 334º @ 001 Knots Heading: 115º
09:32 POS N39º 29´ 15´´ W000º 28´ 36´´
09:32 Flaps:2 at 159 Knots
09:32 Gear Up: 160 Knots
09:33 Flaps:3 at 201 Knots
09:33 Flaps:4 at 202 Knots
09:33 Flaps:5 at 202 Knots
09:34 Flaps:4 at 166 Knots
09:34 Flaps:3 at 164 Knots
09:34 Flaps:2 at 163 Knots
09:34 Flaps:0 at 163 Knots
09:47 Wind:008º@028 Knots Heading: 081º Ground Speed: 356 Knots Altitude 27893 ft
09:48 TOC
09:48 Fuel Weight: 9824 Lb
10:02 Wind:026º@032 Knots Heading: 088º Ground Speed: 442 Knots Altitude 30022 ft
10:17 Wind:358º@041 Knots Heading: 070º Ground Speed: 444 Knots Altitude 30000 ft
10:19 TOD
10:19 Fuel Weight: 7348 Lb
10:32 Wind:015º@006 Knots Heading: 075º Ground Speed: 285 Knots Altitude 9383 ft
10:39 Flaps:1 at 201 Knots
10:40 Flaps:2 at 189 Knots
10:40 Flaps:3 at 171 Knots
10:40 Gear Down: 166 Knots
10:40 Flaps:4 at 154 Knots
10:41 Flaps:5 at 146 Knots
10:45 TouchDown:Rate -228 ft/min Speed: 99 Knots
10:45 VATSIM:LIEA 190950Z VRB02KT 9999 BKN040 17/13 Q1011
10:45 Land
10:45 Wind:298º@002 Knots
10:45 Heading: 025º
10:45 Flight Duration: 01:13
10:45 Landing Weight: 65969 Lbs
10:45 POS N40º 37´ 47´´ E008º 17´ 21´´
10:49 Parking brakes on
10:49 Block to Block Duration: 01:26
10:49 Final Fuel: 6124 Lbls
10:49 Spent Fuel: 6441 Lbls
10:49 Flight Length: 154 NM
10:49 TOD Land Length: 60 NM

Exportar CSV

Powered by Drupal - Modified by Danger4k